AirNav   Air Wisconsin pilot careers
 
 990 users online  

Z95 Cibecue Airport
Cibecue, Arizona, USA


FAA INFORMATION EFFECTIVE 04 JANUARY 2018

Location

FAA Identifier: Z95
Lat/Long: 34-00-12.0000N / 110-26-39.0000W
34-00.200000N / 110-26.650000W
34.0033333 / -110.4441667
(estimated)
Elevation: 5037 ft. / 1535 m (estimated)
Variation: 12E (2000)
From city: 4 miles SE of CIBECUE, AZ
Time zone: UTC -7 (year round; does not observe DST)
Zip code: 85911

Airport Operations

Airport use: Open to the public
Activation date: 10/2000
Control tower: no
ARTCC: ALBUQUERQUE CENTER
FSS: PRESCOTT FLIGHT SERVICE STATION
NOTAMs facility: PRC (NOTAM-D service available)
Attendance: UNATNDD
Wind indicator: yes
Segmented circle: no

Airport Communications

CTAF: 122.9

Nearby radio navigation aids

NDB name  Hdg/Dist  Freq  Var  ID
SHOW LOW221/26.820613ESOW ... --- .--

Airport Services

Runway Information

Runway 7/25

Dimensions: 4200 x 100 ft. / 1280 x 30 m
Surface: gravel/dirt, in poor condition
LOOSE ROCK, SOME RUTS & BRUSH.
RUNWAY 7  RUNWAY 25
Traffic pattern: leftleft
Obstructions: 20 ft. hill, 600 ft. from runway, 150 ft. left of centerline, 30:1 slope to clear4 ft. fence

Airport Ownership and Management from official FAA records

Ownership: Publicly-owned
Owner: WHITE MOUNTAIN APACHE TRIBE
P.O. BOX 700
WHITERIVER, AZ 85941
Phone 520-338-4346
Manager: COLBERT BURNETTE
P.O. BOX 700
WHITERIVER, AZ 85941
Phone 928-338-4346
EMAIL: CBURNETTE@WMAT.US.

Airport Operational Statistics

Aircraft operations: 10/year *
100% transient general aviation
* for 12-month period ending 14 April 2015

Additional Remarks

DAYTIME USE ONLY.
FIRE FIGHTING AIRCRAFT INVOF ARPT APRIL-SEPTEMBER.
PREFERRED LANDING RY 07 AND TKOF RY 25. 1.5%-2% UPSLOPE TO THE NE.
MOUNTAIN RIDGES NORTH AND EAST OF AIRPORT.
SMALL HILLS EITHER SIDE OF RY 07 AND SOUTH SIDE OF RY 25.
RY 25 +35 FT TANK AT END OF RY 200 FT LEFT OF CENTERLINE.

Instrument Procedures

There are no published instrument procedures at Z95.

Some nearby airports with instrument procedures:

KSOW - Show Low Regional Airport (27 nm NE)
KTYL - Taylor Airport (32 nm NE)
P13 - San Carlos Apache Airport (41 nm S)
KPAN - Payson Airport (47 nm W)
KJTC - Springerville Municipal Airport (57 nm E)
 
Loc | Ops | Rwys | IFR | FBO | Links
Com | Nav | Svcs | Stats | Notes


 
Area around Z95 (Cibecue Airport)
 
Road maps at: MapQuest Bing Google
 
Aerial photo
WARNING: Photo may not be current or correct
Aerial photo of Z95 (Cibecue Airport)
Do you have a better or more recent aerial photo of Cibecue Airport that you would like to share? If so, please send us your photo.

 
Sectional chart

 
Airport distance calculator
Flying to Cibecue Airport? Find the distance to fly.

From to Z95

Sunrise and sunset
Times for 21-Jan-2018
 Local
(UTC-7)
 Zulu
(UTC)
Morning civil twilight06:5913:59
Sunrise07:2614:26
Sunset17:4000:40
Evening civil twilight18:0701:07

Current date and time
Zulu (UTC)  21-Jan-2018 17:24:38
Local (UTC-7)  21-Jan-2018 10:24:38
 
METAR
AZ82 
24nm N 
SuperAWOS
211714Z AUTO 26005KT M04/M08 A3001
KSOW 
27nm NE 
211655Z AUTO 28007KT 10SM FEW021 FEW029 M04/M08 A3007 RMK AO2
KPAN 
47nm W 
211655Z AUTO 26006G11KT 10SM CLR M01/M07 A3010 RMK AO2
TAF
NOTAMs
Click for the latest NOTAMs
NOTAMs are issued by the DoD/FAA and will open in a separate window not controlled by AirNav.

 

 
 

Would you like to see your business listed on this page?

 If your business provides an interesting product or service to pilots, flight crews, aircraft, or users of the Cibecue Airport, you should consider listing it here.  To start the listing process, click on the button below
 
Add a business
 

Other Pages about Cibecue Airport

Update a link
 
Copyright © AirNav, LLC. All rights reserved. Privacy Policy  Contact